createdAt,value
2018-03-22T00:00:23.648Z,24.00
2018-03-22T00:02:53.869Z,24.00
2018-03-22T00:05:24.016Z,23.90
2018-03-22T00:07:54.719Z,23.90
2018-03-22T00:10:25.820Z,23.80
2018-03-22T00:12:56.622Z,23.80
2018-03-22T00:15:27.438Z,23.90
2018-03-22T00:17:58.269Z,23.80
2018-03-22T00:20:29.821Z,23.90
2018-03-22T00:23:00.777Z,23.90
2018-03-22T00:25:31.970Z,24.00
2018-03-22T00:28:02.433Z,23.90
2018-03-22T00:30:32.940Z,24.00
2018-03-22T00:33:02.847Z,24.00
2018-03-22T00:35:33.515Z,23.90
2018-03-22T00:38:04.545Z,23.90
2018-03-22T00:40:35.449Z,23.90
2018-03-22T00:43:08.313Z,23.80
2018-03-22T00:45:39.720Z,23.80
2018-03-22T00:48:09.592Z,23.80
2018-03-22T00:50:39.442Z,23.90
2018-03-22T00:53:10.611Z,23.90
2018-03-22T00:55:41.299Z,23.90
2018-03-22T00:58:11.746Z,23.90
2018-03-22T01:00:41.693Z,23.90
2018-03-22T01:03:11.987Z,23.80
2018-03-22T01:05:42.459Z,23.80
2018-03-22T01:08:12.632Z,23.80
2018-03-22T01:10:42.741Z,23.80
2018-03-22T01:13:13.696Z,23.80
2018-03-22T01:15:44.163Z,23.80
2018-03-22T01:18:14.748Z,23.90
2018-03-22T01:20:44.830Z,23.90
2018-03-22T01:23:14.480Z,23.90
2018-03-22T01:25:45.105Z,24.00
2018-03-22T01:28:16.900Z,23.90
2018-03-22T01:30:48.904Z,23.80
2018-03-22T01:33:19.367Z,23.80
2018-03-22T01:35:50.113Z,23.70
2018-03-22T01:38:20.659Z,23.70
2018-03-22T01:40:50.429Z,23.70
2018-03-22T01:43:20.341Z,23.70
2018-03-22T01:45:51.424Z,23.80
2018-03-22T01:48:25.283Z,23.80
2018-03-22T01:50:55.204Z,23.80
2018-03-22T01:53:25.156Z,23.80
2018-03-22T01:55:57.343Z,23.80
2018-03-22T01:58:27.919Z,23.80
2018-03-22T02:00:58.389Z,23.70
2018-03-22T02:03:29.393Z,23.60
2018-03-22T02:05:59.299Z,23.50
2018-03-22T02:08:30.033Z,23.50
2018-03-22T02:11:02.941Z,23.40
2018-03-22T02:13:32.509Z,23.40
2018-03-22T02:16:03.156Z,23.30
2018-03-22T02:18:33.687Z,23.20
2018-03-22T02:21:05.566Z,23.10
2018-03-22T02:23:36.808Z,23.20
2018-03-22T02:26:06.705Z,23.20
2018-03-22T02:28:37.130Z,23.40
2018-03-22T02:31:07.574Z,23.40
2018-03-22T02:33:38.522Z,23.50
2018-03-22T02:36:08.308Z,23.60
2018-03-22T02:38:38.119Z,23.60
2018-03-22T02:41:08.998Z,23.70
2018-03-22T02:43:39.175Z,23.70
2018-03-22T02:46:10.125Z,23.70
2018-03-22T02:48:40.545Z,23.60
2018-03-22T02:51:10.893Z,23.60
2018-03-22T02:53:40.577Z,23.60
2018-03-22T02:56:10.837Z,23.60
2018-03-22T02:58:42.009Z,23.70
2018-03-22T03:01:11.588Z,23.70
2018-03-22T03:03:42.803Z,23.80
2018-03-22T03:06:12.501Z,23.80
2018-03-22T03:08:42.209Z,23.80
2018-03-22T03:11:12.952Z,23.70
2018-03-22T03:13:42.857Z,23.70
2018-03-22T03:16:12.879Z,23.70
2018-03-22T03:18:42.481Z,23.60
2018-03-22T03:21:13.052Z,23.60
2018-03-22T03:23:45.077Z,23.70
2018-03-22T03:26:15.712Z,23.70
2018-03-22T03:28:45.954Z,23.70
2018-03-22T03:31:17.075Z,23.80
2018-03-22T03:33:46.989Z,23.80
2018-03-22T03:36:16.796Z,23.80
2018-03-22T03:38:47.479Z,23.70
2018-03-22T03:41:18.475Z,23.60
2018-03-22T03:43:48.116Z,23.60
2018-03-22T03:46:17.787Z,23.60
2018-03-22T03:48:47.496Z,23.70
2018-03-22T03:51:17.209Z,23.80
2018-03-22T03:53:47.940Z,23.90
2018-03-22T03:56:18.672Z,23.90
2018-03-22T03:58:48.320Z,24.00
2018-03-22T04:01:18.091Z,24.00
2018-03-22T04:03:48.842Z,24.00
2018-03-22T04:06:18.603Z,24.10
2018-03-22T04:08:50.659Z,24.20
2018-03-22T04:11:20.871Z,24.10
2018-03-22T04:13:52.099Z,24.20
2018-03-22T04:16:22.596Z,24.20
2018-03-22T04:18:52.432Z,24.20
2018-03-22T04:21:24.562Z,24.10
2018-03-22T04:23:54.223Z,24.10
2018-03-22T04:26:24.003Z,24.10
2018-03-22T04:28:54.420Z,24.10
2018-03-22T04:31:24.098Z,24.10
2018-03-22T04:33:55.734Z,24.20
2018-03-22T04:36:26.362Z,24.20
2018-03-22T04:38:56.069Z,24.20
2018-03-22T04:41:26.806Z,24.20
2018-03-22T04:43:56.738Z,24.20
2018-03-22T04:46:28.024Z,24.20
2018-03-22T04:48:57.785Z,24.20
2018-03-22T04:51:28.378Z,24.20
2018-03-22T04:53:58.728Z,24.10
2018-03-22T04:56:33.309Z,24.10
2018-03-22T04:59:03.976Z,24.10
2018-03-22T05:01:34.386Z,24.20
2018-03-22T05:04:05.566Z,24.20
2018-03-22T05:06:35.880Z,24.20
2018-03-22T05:09:06.974Z,24.20
2018-03-22T05:11:38.569Z,24.20
2018-03-22T05:14:10.457Z,24.20
2018-03-22T05:16:43.070Z,24.10
2018-03-22T05:19:13.495Z,24.20
2018-03-22T05:21:43.865Z,24.20
2018-03-22T05:24:15.064Z,24.20
2018-03-22T05:26:46.355Z,24.20
2018-03-22T05:29:16.420Z,24.20
2018-03-22T05:31:47.416Z,24.30
2018-03-22T05:37:02.807Z,24.20
2018-03-22T05:39:34.361Z,24.20
2018-03-22T05:42:05.153Z,24.10
2018-03-22T05:44:35.074Z,24.10
2018-03-22T05:47:05.084Z,24.00
2018-03-22T05:49:35.040Z,23.90
2018-03-22T05:52:06.552Z,23.70
2018-03-22T05:54:36.481Z,23.60
2018-03-22T05:57:07.196Z,23.50
2018-03-22T05:59:37.745Z,23.30
2018-03-22T06:02:08.051Z,23.20
2018-03-22T06:04:37.868Z,23.20
2018-03-22T06:07:08.904Z,23.20
2018-03-22T06:09:39.524Z,23.20
2018-03-22T06:12:10.163Z,23.30
2018-03-22T06:14:40.740Z,23.50
2018-03-22T06:17:11.499Z,23.60
2018-03-22T06:19:42.058Z,23.30
2018-03-22T06:22:11.925Z,23.40
2018-03-22T06:24:42.004Z,23.60
2018-03-22T06:27:13.748Z,23.70
2018-03-22T06:29:44.393Z,23.80
2018-03-22T06:32:14.426Z,23.80
2018-03-22T06:34:44.329Z,23.90
2018-03-22T06:37:16.378Z,24.00
2018-03-22T06:39:46.022Z,24.00
2018-03-22T06:42:16.511Z,24.10
2018-03-22T06:44:46.284Z,24.10
2018-03-22T06:47:16.237Z,24.10
2018-03-22T06:49:46.152Z,24.10
2018-03-22T06:52:16.428Z,24.10
2018-03-22T06:54:46.697Z,24.10
2018-03-22T06:57:19.102Z,24.10
2018-03-22T06:59:49.190Z,24.10
2018-03-22T07:02:19.464Z,24.10
2018-03-22T07:04:50.245Z,24.20
2018-03-22T07:07:20.573Z,24.20
2018-03-22T07:09:51.916Z,24.20
2018-03-22T07:12:22.158Z,24.20
2018-03-22T07:14:53.178Z,24.20
2018-03-22T07:17:23.196Z,24.20
2018-03-22T07:19:53.121Z,24.20
2018-03-22T07:22:23.645Z,24.20
2018-03-22T07:24:53.707Z,24.10
2018-03-22T07:27:24.850Z,24.20
2018-03-22T07:29:54.813Z,24.20
2018-03-22T07:32:29.853Z,24.20
2018-03-22T07:35:01.404Z,24.10
2018-03-22T07:37:32.138Z,24.00
2018-03-22T07:40:03.079Z,23.80
2018-03-22T07:42:32.988Z,23.60
2018-03-22T07:45:07.623Z,23.50
2018-03-22T07:47:37.531Z,23.50
2018-03-22T07:50:10.822Z,23.60
2018-03-22T07:52:40.956Z,23.60
2018-03-22T07:55:12.887Z,23.70
2018-03-22T07:57:42.714Z,23.80
2018-03-22T08:00:13.448Z,24.10
2018-03-22T08:02:44.184Z,24.00
2018-03-22T08:05:15.963Z,23.10
2018-03-22T08:07:46.759Z,22.30
2018-03-22T08:10:16.587Z,21.90
2018-03-22T08:12:49.756Z,21.70
2018-03-22T08:15:22.951Z,21.70
2018-03-22T08:17:54.740Z,21.90
2018-03-22T08:20:37.127Z,22.00
2018-03-22T08:23:18.543Z,22.10
2018-03-22T08:25:55.112Z,22.10
2018-03-22T08:28:34.123Z,22.10
2018-03-22T08:31:03.828Z,22.10
2018-03-22T08:33:34.160Z,22.00
2018-03-22T08:36:04.895Z,22.00
2018-03-22T08:38:34.936Z,21.90
2018-03-22T08:41:07.552Z,21.80
2018-03-22T08:43:37.618Z,21.80
2018-03-22T08:46:07.408Z,21.80
2018-03-22T08:48:37.234Z,21.70
2018-03-22T08:51:07.080Z,22.10
2018-03-22T08:53:38.579Z,22.30
2018-03-22T08:56:09.627Z,22.40
2018-03-22T08:58:39.952Z,22.40
2018-03-22T09:01:09.659Z,22.40
2018-03-22T09:03:40.629Z,22.40
2018-03-22T09:06:10.306Z,22.50
2018-03-22T09:08:40.227Z,22.70
2018-03-22T09:11:10.956Z,22.80
2018-03-22T09:13:40.666Z,22.90
2018-03-22T09:16:10.580Z,23.00
2018-03-22T09:18:41.935Z,23.00
2018-03-22T09:21:12.750Z,21.60
2018-03-22T09:23:42.781Z,21.60
2018-03-22T09:26:13.359Z,22.10
2018-03-22T09:28:43.224Z,22.10
2018-03-22T09:31:13.956Z,22.10
2018-03-22T09:33:45.247Z,22.00
2018-03-22T09:36:14.913Z,22.10
2018-03-22T09:38:45.445Z,22.10
2018-03-22T09:41:15.574Z,22.10
2018-03-22T09:43:45.482Z,22.20
2018-03-22T09:46:15.286Z,22.20
2018-03-22T09:48:46.727Z,22.30
2018-03-22T09:51:16.641Z,22.40
2018-03-22T09:53:46.635Z,22.50
2018-03-22T09:56:16.482Z,22.30
2018-03-22T09:58:46.599Z,22.20
2018-03-22T10:01:17.128Z,22.40
2018-03-22T10:03:47.950Z,22.40
2018-03-22T10:06:18.600Z,22.40
2018-03-22T10:08:48.509Z,22.40
2018-03-22T10:11:18.320Z,22.40
2018-03-22T10:13:48.235Z,22.30
2018-03-22T10:16:23.253Z,22.30
2018-03-22T10:18:56.420Z,22.30
2018-03-22T10:21:26.452Z,22.20
2018-03-22T10:24:03.311Z,22.20
2018-03-22T10:26:36.871Z,22.10
2018-03-22T10:29:09.487Z,22.10
2018-03-22T10:31:46.719Z,22.20
2018-03-22T10:34:18.480Z,22.30
2018-03-22T10:36:50.239Z,22.40
2018-03-22T10:39:22.299Z,22.50
2018-03-22T10:41:58.812Z,22.50
2018-03-22T10:44:33.418Z,22.40
2018-03-22T10:47:06.759Z,22.20
2018-03-22T10:49:40.249Z,22.10
2018-03-22T10:52:16.345Z,21.80
2018-03-22T10:54:51.570Z,21.70
2018-03-22T10:57:24.368Z,21.80
2018-03-22T10:59:58.558Z,22.00
2018-03-22T11:02:36.071Z,22.00
2018-03-22T11:05:09.068Z,22.00
2018-03-22T11:07:41.020Z,22.00
2018-03-22T11:10:12.880Z,22.00
2018-03-22T11:12:44.313Z,21.90
2018-03-22T11:15:18.875Z,21.80
2018-03-22T11:18:05.220Z,21.50
2018-03-22T11:23:25.510Z,21.30
2018-03-22T11:26:08.165Z,21.30
2018-03-22T11:28:54.774Z,21.30
2018-03-22T11:31:27.564Z,21.30
2018-03-22T11:34:00.348Z,21.30
2018-03-22T11:36:34.534Z,21.30
2018-03-22T11:39:08.709Z,21.30
2018-03-22T11:41:42.172Z,21.30
2018-03-22T11:44:17.028Z,21.20
2018-03-22T11:46:51.585Z,21.20
2018-03-22T11:49:22.578Z,21.20
2018-03-22T11:51:57.877Z,21.00
2018-03-22T11:54:35.811Z,21.10
2018-03-22T12:00:13.211Z,21.10
2018-03-22T12:03:01.981Z,21.20
2018-03-22T12:06:59.010Z,21.20
2018-03-22T12:09:34.127Z,21.20
2018-03-22T12:12:07.470Z,21.40
2018-03-22T12:14:48.070Z,21.70
2018-03-22T12:17:23.058Z,21.80
2018-03-22T12:19:53.179Z,21.90
2018-03-22T12:22:32.104Z,22.00
2018-03-22T12:25:06.310Z,22.00
2018-03-22T12:27:36.542Z,22.20
2018-03-22T12:30:17.720Z,22.10
2018-03-22T12:32:51.437Z,22.10
2018-03-22T12:35:23.431Z,22.00
2018-03-22T12:37:57.679Z,22.30
2018-03-22T12:40:34.168Z,22.50
2018-03-22T12:43:09.356Z,22.30
2018-03-22T12:45:42.375Z,22.00
2018-03-22T12:48:26.649Z,21.80
2018-03-22T12:51:00.721Z,21.80
2018-03-22T12:53:32.789Z,21.90
2018-03-22T12:56:09.051Z,21.90
2018-03-22T12:58:39.741Z,22.00
2018-03-22T13:01:18.450Z,22.20
2018-03-22T13:03:54.049Z,22.10
2018-03-22T13:06:33.832Z,21.70
2018-03-22T13:09:13.523Z,21.60
2018-03-22T13:11:49.864Z,21.30
2018-03-22T13:14:25.780Z,22.00
2018-03-22T13:17:08.002Z,22.00
2018-03-22T13:19:43.646Z,21.50
2018-03-22T13:22:18.937Z,21.40
2018-03-22T13:24:56.279Z,21.60
2018-03-22T13:27:34.685Z,21.60
2018-03-22T13:30:10.185Z,21.60
2018-03-22T13:32:42.661Z,21.60
2018-03-22T13:35:17.342Z,21.50
2018-03-22T13:37:53.504Z,21.60
2018-03-22T13:40:29.881Z,21.60
2018-03-22T13:43:11.040Z,21.50
2018-03-22T13:45:50.805Z,21.30
2018-03-22T13:48:25.281Z,21.50
2018-03-22T13:50:58.395Z,22.10
2018-03-22T13:53:34.768Z,22.40
2018-03-22T13:56:07.323Z,22.60
2018-03-22T13:58:45.355Z,22.80
2018-03-22T14:01:21.397Z,23.00
2018-03-22T14:03:51.986Z,23.10
2018-03-22T14:06:23.009Z,23.10
2018-03-22T14:08:52.883Z,23.20
2018-03-22T14:11:22.697Z,23.20
2018-03-22T14:13:52.545Z,23.20
2018-03-22T14:16:22.216Z,23.20
2018-03-22T14:18:52.133Z,23.30
2018-03-22T14:21:21.946Z,23.30
2018-03-22T14:23:52.680Z,23.40
2018-03-22T14:26:23.620Z,23.50
2018-03-22T14:28:54.351Z,23.50
2018-03-22T14:31:24.264Z,23.50
2018-03-22T14:33:54.078Z,23.50
2018-03-22T14:36:23.791Z,23.60
2018-03-22T14:38:53.801Z,23.60
2018-03-22T14:41:23.410Z,23.60
2018-03-22T14:43:54.455Z,23.50
2018-03-22T14:46:25.085Z,23.50
2018-03-22T14:48:54.796Z,23.50
2018-03-22T14:51:24.569Z,23.60
2018-03-22T14:53:55.036Z,23.60
2018-03-22T14:56:24.736Z,23.70
2018-03-22T14:58:56.088Z,23.70
2018-03-22T15:01:25.799Z,23.70
2018-03-22T15:03:56.323Z,23.70
2018-03-22T15:06:28.020Z,23.60
2018-03-22T15:08:57.736Z,23.50
2018-03-22T15:11:27.772Z,23.50
2018-03-22T15:13:57.626Z,23.40
2018-03-22T15:16:28.966Z,23.20
2018-03-22T15:18:58.781Z,23.20
2018-03-22T15:21:28.804Z,23.30
2018-03-22T15:23:59.741Z,23.40
2018-03-22T15:26:29.751Z,23.50
2018-03-22T15:28:59.563Z,23.60
2018-03-22T15:31:29.684Z,23.70
2018-03-22T15:34:00.117Z,23.80
2018-03-22T15:36:29.961Z,23.80
2018-03-22T15:39:01.213Z,23.80
2018-03-22T15:41:30.979Z,23.80
2018-03-22T15:44:00.996Z,23.70
2018-03-22T15:46:32.624Z,23.70
2018-03-22T15:49:02.593Z,23.70
2018-03-22T15:51:33.449Z,23.70
2018-03-22T15:54:04.441Z,23.80
2018-03-22T15:56:34.255Z,23.80
2018-03-22T15:59:06.422Z,23.90
2018-03-22T16:01:36.643Z,23.90
2018-03-22T16:04:06.661Z,23.90
2018-03-22T16:06:37.313Z,23.90
2018-03-22T16:09:08.111Z,24.00
2018-03-22T16:11:38.758Z,24.00
2018-03-22T16:14:09.429Z,24.00
2018-03-22T16:16:39.104Z,23.90
2018-03-22T16:19:08.811Z,24.00
2018-03-22T16:21:38.671Z,23.90
2018-03-22T16:24:08.842Z,23.90
2018-03-22T16:26:38.560Z,23.90
2018-03-22T16:29:10.531Z,23.90
2018-03-22T16:31:42.581Z,24.00
2018-03-22T16:34:12.445Z,24.00
2018-03-22T16:36:42.223Z,24.00
2018-03-22T16:39:12.737Z,24.00
2018-03-22T16:41:42.753Z,24.10
2018-03-22T16:44:14.917Z,24.10
2018-03-22T16:46:44.968Z,24.10
2018-03-22T16:49:14.949Z,24.00
2018-03-22T16:51:46.707Z,24.00
2018-03-22T16:54:17.236Z,24.00
2018-03-22T16:56:48.332Z,24.00
2018-03-22T16:59:19.315Z,24.00
2018-03-22T17:01:49.845Z,24.00
2018-03-22T17:04:22.422Z,24.00
2018-03-22T17:06:53.821Z,24.10
2018-03-22T17:09:24.196Z,24.10
2018-03-22T17:11:54.635Z,24.10
2018-03-22T17:14:25.411Z,24.10
2018-03-22T17:16:55.290Z,24.10
2018-03-22T17:19:25.287Z,24.00
2018-03-22T17:21:55.154Z,24.00
2018-03-22T17:24:26.708Z,24.00
2018-03-22T17:27:00.971Z,24.00
2018-03-22T17:29:32.805Z,24.00
2018-03-22T17:32:02.645Z,24.00
2018-03-22T17:34:32.560Z,24.10
2018-03-22T17:37:03.088Z,24.10
2018-03-22T17:39:32.802Z,24.10
2018-03-22T17:42:02.881Z,24.10
2018-03-22T17:44:33.665Z,24.10
2018-03-22T17:47:03.928Z,24.10
2018-03-22T17:49:33.840Z,24.10
2018-03-22T17:52:04.416Z,24.10
2018-03-22T17:54:36.592Z,24.00
2018-03-22T17:57:06.604Z,24.00
2018-03-22T17:59:36.800Z,24.10
2018-03-22T18:02:06.941Z,24.10
2018-03-22T18:04:37.035Z,24.10
2018-03-22T18:07:07.082Z,24.10
2018-03-22T18:09:37.194Z,24.10
2018-03-22T18:12:07.451Z,24.10
2018-03-22T18:14:38.054Z,24.10
2018-03-22T18:17:07.962Z,24.10
2018-03-22T18:19:38.042Z,24.10
2018-03-22T18:22:07.875Z,24.10
2018-03-22T18:24:38.196Z,24.10
2018-03-22T18:27:08.746Z,24.00
2018-03-22T18:29:40.213Z,24.10
2018-03-22T18:32:10.221Z,24.10
2018-03-22T18:34:41.059Z,24.10
2018-03-22T18:37:13.164Z,24.10
2018-03-22T18:39:43.440Z,24.10
2018-03-22T18:42:14.493Z,24.10
2018-03-22T18:44:44.468Z,24.10
2018-03-22T18:47:16.469Z,24.10
2018-03-22T18:49:47.600Z,24.10
2018-03-22T18:52:17.466Z,24.10
2018-03-22T18:54:48.129Z,24.10
2018-03-22T18:57:19.192Z,24.00
2018-03-22T18:59:49.920Z,24.10
2018-03-22T19:02:19.888Z,24.10
2018-03-22T19:04:49.738Z,24.10
2018-03-22T19:07:20.806Z,24.10
2018-03-22T19:09:50.705Z,24.20
2018-03-22T19:12:22.063Z,24.20
2018-03-22T19:14:51.970Z,24.20
2018-03-22T19:17:21.985Z,24.20
2018-03-22T19:19:52.112Z,24.10
2018-03-22T19:22:21.812Z,24.10
2018-03-22T19:24:51.725Z,24.10
2018-03-22T19:27:22.464Z,24.10
2018-03-22T19:29:52.684Z,24.10
2018-03-22T19:32:22.701Z,24.10
2018-03-22T19:34:52.590Z,24.10
2018-03-22T19:37:22.808Z,24.10
2018-03-22T19:39:54.291Z,24.20
2018-03-22T19:42:24.917Z,24.20
2018-03-22T19:44:55.666Z,24.20
2018-03-22T19:47:26.282Z,24.10
2018-03-22T19:49:56.912Z,24.10
2018-03-22T19:52:27.670Z,24.10
2018-03-22T19:54:59.098Z,24.10
2018-03-22T19:57:29.399Z,24.10
2018-03-22T20:00:00.568Z,24.10
2018-03-22T20:02:30.328Z,24.10
2018-03-22T20:05:04.346Z,24.10
2018-03-22T20:07:34.201Z,24.10
2018-03-22T20:10:04.183Z,24.20
2018-03-22T20:12:35.229Z,24.20
2018-03-22T20:15:05.185Z,24.20
2018-03-22T20:17:35.114Z,24.20
2018-03-22T20:20:06.433Z,24.20
2018-03-22T20:22:36.351Z,24.10
2018-03-22T20:25:08.491Z,24.10
2018-03-22T20:27:39.670Z,24.10
2018-03-22T20:30:09.574Z,24.10
2018-03-22T20:32:41.919Z,24.10
2018-03-22T20:35:12.019Z,24.10
2018-03-22T20:37:42.814Z,24.20
2018-03-22T20:40:12.823Z,24.20
2018-03-22T20:42:44.008Z,24.20
2018-03-22T20:45:14.216Z,24.20
2018-03-22T20:47:45.091Z,24.20
2018-03-22T20:50:15.134Z,24.20
2018-03-22T20:52:46.556Z,24.20
2018-03-22T20:55:16.667Z,24.10
2018-03-22T20:57:47.333Z,24.20
2018-03-22T21:00:17.818Z,24.20
2018-03-22T21:02:47.821Z,24.20
2018-03-22T21:05:17.895Z,24.20
2018-03-22T21:07:48.011Z,24.30
2018-03-22T21:10:20.192Z,24.30
2018-03-22T21:12:53.083Z,24.30
2018-03-22T21:15:24.107Z,24.30
2018-03-22T21:17:55.090Z,24.30
2018-03-22T21:20:25.578Z,24.20
2018-03-22T21:22:57.159Z,24.20
2018-03-22T21:25:27.246Z,24.20
2018-03-22T21:27:57.470Z,24.10
2018-03-22T21:30:28.916Z,24.10
2018-03-22T21:32:59.246Z,24.10
2018-03-22T21:35:29.565Z,24.20
2018-03-22T21:37:59.633Z,24.20
2018-03-22T21:40:30.215Z,24.20
2018-03-22T21:43:00.286Z,24.10
2018-03-22T21:45:30.043Z,24.10
2018-03-22T21:47:59.958Z,24.10
2018-03-22T21:50:38.677Z,24.10
2018-03-22T21:53:09.415Z,24.10
2018-03-22T21:55:39.531Z,24.10
2018-03-22T21:58:09.523Z,24.10
2018-03-22T22:00:39.634Z,24.10
2018-03-22T22:03:10.509Z,24.10
2018-03-22T22:05:41.043Z,24.10
2018-03-22T22:08:10.742Z,24.10
2018-03-22T22:10:42.292Z,24.10
2018-03-22T22:13:12.220Z,24.10
2018-03-22T22:15:43.350Z,24.10
2018-03-22T22:18:13.980Z,24.10
2018-03-22T22:20:45.341Z,24.10
2018-03-22T22:23:15.857Z,24.10
2018-03-22T22:25:45.674Z,24.10
2018-03-22T22:28:16.198Z,24.10
2018-03-22T22:30:47.767Z,24.10
2018-03-22T22:33:17.460Z,24.20
2018-03-22T22:35:47.172Z,24.20
2018-03-22T22:38:16.937Z,24.20
2018-03-22T22:40:46.770Z,24.20
2018-03-22T22:43:16.712Z,24.10
2018-03-22T22:45:48.569Z,24.10
2018-03-22T22:48:19.301Z,24.10
2018-03-22T22:50:49.831Z,24.10
2018-03-22T22:53:19.955Z,24.10
2018-03-22T22:55:50.046Z,24.10
2018-03-22T22:58:19.984Z,24.20
2018-03-22T23:00:49.904Z,24.20
2018-03-22T23:03:19.813Z,24.20
2018-03-22T23:05:49.522Z,24.20
2018-03-22T23:08:20.278Z,24.20
2018-03-22T23:10:51.297Z,24.20
2018-03-22T23:13:21.829Z,24.20
2018-03-22T23:15:54.015Z,24.10
2018-03-22T23:18:23.907Z,24.10
2018-03-22T23:20:56.082Z,24.10
2018-03-22T23:23:27.016Z,24.10
2018-03-22T23:26:00.353Z,24.10
2018-03-22T23:28:32.816Z,24.20
2018-03-22T23:31:02.900Z,24.20
2018-03-22T23:33:32.614Z,24.20
2018-03-22T23:36:02.796Z,24.20
2018-03-22T23:38:32.442Z,24.20
2018-03-22T23:41:03.590Z,24.20
2018-03-22T23:43:35.546Z,24.10
2018-03-22T23:46:07.116Z,24.10
2018-03-22T23:48:41.320Z,24.10
2018-03-22T23:51:11.848Z,24.10
2018-03-22T23:53:42.529Z,24.10
2018-03-22T23:56:12.387Z,24.20
2018-03-22T23:58:43.529Z,24.20
